Home > Products > Valid Products > TAF

000
FTUS45 KTWC 010500
TAFOLS
TAF
KOLS 010524Z 0106/0206 16005KT P6SM SCT200
     FM010800 VRB03KT P6SM BKN200
     FM011600 17012G18KT P6SM FEW060
     FM012000 21016G24KT P6SM SCT060=



000
FTUS45 KTWC 010500
TAFTUS
TAF
KTUS 010524Z 0106/0206 15008KT P6SM FEW120 SCT200
     FM010800 12007KT P6SM BKN200
     FM011700 16012G18KT P6SM FEW060
     FM012000 22013G20KT P6SM SCT070=



000
FTUS45 KTWC 010500
TAFDUG
TAF
KDUG 010524Z 0106/0206 10008KT P6SM FEW090 SCT200
     FM011000 VRB03KT P6SM BKN200
     FM011600 16012G18KT P6SM FEW060
     FM012000 22018G26KT P6SM SCT060=



000
FTUS45 KTWC 010200 AAA
TAFOLS
TAF AMD
KOLS 010233Z 0103/0124 VRB04KT P6SM FEW120 SCT200
     FM011600 17012G18KT P6SM FEW060
     FM012100 21016G24KT P6SM SCT060=



000
FTUS45 KTWC 312300
TAFTUS
TAF
KTUS 312320Z 0100/0124 15006KT P6SM FEW120 SCT200
     FM011700 16012G18KT P6SM FEW060
     FM012100 22013G20KT P6SM SCT070=



000
FTUS45 KTWC 312300
TAFDUG
TAF
KDUG 312320Z 0100/0124 11008KT P6SM SCT090 BKN200
     FM011600 16012G18KT P6SM FEW060
     FM012100 22018G26KT P6SM SCT060=



000
FTUS45 KTWC 312300
TAFOLS
TAF
KOLS 312320Z 0100/0124 18008KT P6SM SCT100 SCT200
      TEMPO 0100/0102 19012G18KT
     FM010400 VRB04KT P6SM SCT250
     FM011600 17012G18KT P6SM FEW060
     FM012100 21016G24KT P6SM SCT060=



000
FTUS45 KTWC 312100 AAA
TAFDUG
TAF AMD
KDUG 312139Z 3122/0118 14015G22KT P6SM SCT080 SCT140
     FM010300 12009KT P6SM SCT090
     FM011600 15010KT P6SM FEW070 SCT250=



000
FTUS45 KTWC 312100 AAA
TAFTUS
TAF AMD
KTUS 312138Z 3122/0118 14010KT P6SM SCT150 SCT250
     FM010100 15009KT P6SM FEW100 SCT150
     FM010500 15007KT P6SM FEW120 SCT250=



000
FTUS45 KTWC 311700
TAFTUS
TAF
KTUS 311737Z 3118/0118 13015G22KT P6SM SCT150 SCT250
     FM312100 15012G18KT P6SM FEW100 SCT150
     FM010500 15007KT P6SM FEW120 SCT250=



000
FTUS45 KTWC 311700
TAFOLS
TAF
KOLS 311737Z 3118/0118 16008G18KT P6SM SCT080 SCT150
     FM010300 15007KT P6SM SCT090 SCT250
     FM010600 VRB04KT P6SM SCT250
     FM011700 18012KT P6SM FEW070 SCT180=



000
FTUS45 KTWC 311700
TAFDUG
TAF
KDUG 311737Z 3118/0118 11015G22KT P6SM SCT080 SCT140
     FM010300 12009KT P6SM SCT090
     FM011600 15010KT P6SM FEW070 SCT250=



000
FTUS45 KTWC 311700 AAB
TAFDUG
TAF AMD
KDUG 311701Z 3117/0112 10015G22KT P6SM SCT130
     FM010300 12011KT P6SM SCT100=



000
FTUS45 KTWC 311500 AAA
TAFTUS
TAF AMD
KTUS 311526Z 3115/0112 13015G22KT P6SM BKN150
     FM311900 18012G18KT P6SM FEW120
     FM010500 15007KT P6SM FEW120=



000
FTUS45 KTWC 311400 AAA
TAFDUG
TAF AMD
KDUG 311436Z 3115/0112 10015G22KT P6SM BKN130
     FM311700 13016G22KT P6SM SCT100
     FM010300 12011KT P6SM SCT100=



000
FTUS45 KTWC 311100
TAFTUS
TAF
KTUS 311131Z 3112/0112 14009KT P6SM BKN150
     FM311900 18012G18KT P6SM FEW120
     FM010500 15007KT P6SM FEW120=



000
FTUS45 KTWC 311100
TAFOLS
TAF
KOLS 311131Z 3112/0112 VRB04KT P6SM BKN130
     FM311800 18014G20KT P6SM SCT100
     FM010300 13008KT P6SM SCT100=



000
FTUS45 KTWC 311100
TAFDUG
TAF
KDUG 311131Z 3112/0112 10009KT P6SM BKN130
     FM311700 13016G22KT P6SM SCT100
     FM010300 12011KT P6SM SCT100=



000
FTUS45 KTWC 310500
TAFTUS
TAF
KTUS 310520Z 3106/0106 17004KT P6SM SCT200
     FM310800 14007KT P6SM BKN200
     FM311900 18012KT P6SM SCT120 BKN200
     FM010300 16006KT P6SM FEW120 BKN200=



000
FTUS45 KTWC 310500
TAFDUG
TAF
KDUG 310520Z 3106/0106 08008KT P6SM SCT200
     FM311000 07006KT P6SM BKN200
     FM311800 13014G22KT P6SM SCT100 BKN200
     FM010300 11009KT P6SM FEW100 BKN200=



000
FTUS45 KTWC 310500
TAFOLS
TAF
KOLS 310520Z 3106/0106 08006KT P6SM SCT200
     FM310800 10005KT P6SM BKN200
     FM311800 18013G18KT P6SM SCT110 BKN200
     FM010300 13007KT P6SM FEW110 BKN200=



000
FTUS45 KTWC 302300
TAFDUG
TAF
KDUG 302320Z 3100/3124 VRB04KT P6SM FEW100 SCT200
     FM310300 08008KT P6SM SCT200
     FM311800 13013G20KT P6SM SCT100 BKN200=



000
FTUS45 KTWC 302300
TAFTUS
TAF
KTUS 302320Z 3100/3124 08007KT P6SM FEW120 SCT200
     FM310400 14007KT P6SM SCT200
     FM311900 18011KT P6SM SCT120 BKN200=



000
FTUS45 KTWC 302300
TAFOLS
TAF
KOLS 302320Z 3100/3124 VRB04KT P6SM FEW110 SCT200
     FM311800 18012G18KT P6SM SCT110 BKN200=



000
FTUS45 KTWC 301700
TAFDUG
TAF
KDUG 301731Z 3018/3118 VRB05KT P6SM SCT250
     FM302200 11006KT P6SM BKN200
     FM310500 07007KT P6SM BKN200
     FM311700 09010KT P6SM SCT080 BKN200=



000
FTUS45 KTWC 301700
TAFDUG
TAF
KDUG 301731Z 3018/3118 VRB05KT P6SM SCT250
     FM302200 11006KT P6SM BKN200
     FM310500 07007KT P6SM BKN200
     FM311700 09010KT P6SM SCT080 BKN200=



000
FTUS45 KTWC 301700
TAFTUS
TAF
KTUS 301731Z 3018/3118 14005KT P6SM SCT250
     FM302100 33005KT P6SM BKN250
     FM310400 14006KT P6SM BKN200
     FM311200 13012KT P6SM BKN200=



000
FTUS45 KTWC 301700
TAFOLS
TAF
KOLS 301731Z 3018/3118 21006KT P6SM BKN250
     FM310300 VRB03KT P6SM BKN200
     FM311700 16005KT P6SM FEW080 BKN200=



000
FTUS45 KTWC 301700
TAFTUS
TAF
KTUS 301731Z 3018/3118 14005KT P6SM SCT250
     FM302100 33005KT P6SM BKN250
     FM310400 14006KT P6SM BKN200
     FM311200 13012KT P6SM BKN200=



000
FTUS45 KTWC 301700
TAFOLS
TAF
KOLS 301731Z 3018/3118 21006KT P6SM BKN250
     FM310300 VRB03KT P6SM BKN200
     FM311700 16005KT P6SM FEW080 BKN200=



000
FTUS45 KTWC 301100
TAFDUG
TAF
KDUG 301127Z 3012/3112 VRB04KT P6SM SKC
     FM301800 13008KT P6SM SCT250
     FM302300 11006KT P6SM BKN250
     FM310500 07007KT P6SM FEW140 BKN250=



000
FTUS45 KTWC 301100
TAFOLS
TAF
KOLS 301127Z 3012/3112 VRB03KT P6SM SKC
     FM301700 17006KT P6SM SCT250
     FM302000 21006KT P6SM BKN250
     FM310300 VRB03KT P6SM FEW140 BKN250=



000
FTUS45 KTWC 301100
TAFTUS
TAF
KTUS 301127Z 3012/3112 14008KT P6SM SKC
     FM301700 13005KT P6SM SCT250
     FM302100 33005KT P6SM BKN250
     FM310400 14006KT P6SM FEW150 BKN250=



000
FTUS45 KTWC 300500
TAFOLS
TAF
KOLS 300520Z 3006/3106 VRB04KT P6SM SKC
     FM301900 20007KT P6SM SCT250
     FM310300 VRB04KT P6SM SCT250=



000
FTUS45 KTWC 300500
TAFDUG
TAF
KDUG 300520Z 3006/3106 32008KT P6SM SKC
     FM300800 03005KT P6SM SKC
     FM301900 10008KT P6SM FEW250
     FM310200 08005KT P6SM SCT250=



000
FTUS45 KTWC 300500
TAFTUS
TAF
KTUS 300520Z 3006/3106 21005KT P6SM SKC
     FM300800 15008KT P6SM SKC
     FM302000 11007KT P6SM SCT250
     FM310300 VRB04KT P6SM SCT250=



000
FTUS45 KTWC 292300
TAFDUG
TAF
KDUG 292320Z 3000/3024 VRB03KT P6SM SKC
     FM301800 13008KT P6SM FEW250=



000
FTUS45 KTWC 292300
TAFTUS
TAF
KTUS 292320Z 3000/3024 VRB03KT P6SM SKC
     FM300700 15007KT P6SM SKC
     FM302000 23007KT P6SM SCT250=



000
FTUS45 KTWC 292300
TAFOLS
TAF
KOLS 292320Z 3000/3024 VRB03KT P6SM SKC
     FM302000 20007KT P6SM SCT250=



000
FTUS45 KTWC 291700
TAFTUS
TAF
KTUS 291732Z 2918/3018 VRB03KT P6SM SKC
     FM292000 34005KT P6SM SKC
     FM300500 14007KT P6SM SKC
     FM301500 13012KT P6SM SCT250=



000
FTUS45 KTWC 291700
TAFDUG
TAF
KDUG 291732Z 2918/3018 VRB03KT P6SM SKC
     FM292000 10006KT P6SM SKC
     FM300300 01005KT P6SM SKC
     FM301700 11008KT P6SM SKC=



000
FTUS45 KTWC 291700
TAFOLS
TAF
KOLS 291732Z 2918/3018 VRB03KT P6SM SKC
     FM291900 26006KT P6SM SKC
     FM300300 VRB03KT P6SM SKC
     FM301700 16004KT P6SM SCT250=



000
FTUS45 KTWC 291100
TAFTUS
TAF
KTUS 291120Z 2912/3012 15007KT P6SM SKC
     FM292000 34005KT P6SM SKC
     FM300500 14007KT P6SM SKC=



000
FTUS45 KTWC 291100
TAFDUG
TAF
KDUG 291120Z 2912/3012 VRB03KT P6SM SKC
     FM291900 10006KT P6SM SKC
     FM300300 01005KT P6SM SKC=



000
FTUS45 KTWC 291100
TAFOLS
TAF
KOLS 291120Z 2912/3012 VRB03KT P6SM SKC
     FM291900 26006KT P6SM SKC
     FM300300 VRB03KT P6SM SKC=



    US Dept of Commerce
    National Oceanic and Atmospheric Administration
    National Weather Service
    1325 East West Highway
    Silver Spring, MD 20910
    Page Author: NWS Internet Services Team
Disclaimer
Information Quality
Credits
Glossary
Privacy Policy
Freedom of Information Act (FOIA)
About Us
Career Opportunities